createdAt,value
2022-12-03T00:00:13.427Z,4.68
2022-12-03T00:00:25.617Z,4.70
2022-12-03T00:00:37.728Z,4.75
2022-12-03T00:00:49.673Z,4.68
2022-12-03T00:01:01.782Z,4.71
2022-12-03T00:01:14.237Z,4.71
2022-12-03T00:01:26.562Z,4.70
2022-12-03T00:01:38.506Z,4.74
2022-12-03T00:01:50.646Z,4.68
2022-12-03T00:02:02.603Z,4.75
2022-12-03T00:02:15.087Z,4.76
2022-12-03T00:02:27.223Z,4.82
2022-12-03T00:02:39.743Z,4.83
2022-12-03T00:02:51.987Z,4.89
2022-12-03T00:03:04.571Z,4.89
2022-12-03T00:03:17.373Z,4.90
2022-12-03T00:03:30.495Z,4.94
2022-12-03T00:03:43.377Z,4.95
2022-12-03T00:03:55.943Z,4.97
2022-12-03T00:04:08.211Z,4.96
2022-12-03T00:04:20.175Z,4.96
2022-12-03T00:04:32.119Z,5.01
2022-12-03T00:04:44.045Z,4.98
2022-12-03T00:04:56.135Z,5.00
2022-12-03T00:05:08.578Z,5.04
2022-12-03T00:05:20.913Z,5.06
2022-12-03T00:05:32.881Z,5.07
2022-12-03T00:05:48.832Z,5.07
2022-12-03T00:06:01.513Z,5.06
2022-12-03T00:06:13.408Z,5.08
2022-12-03T00:06:28.981Z,5.08
2022-12-03T00:06:43.483Z,5.06
2022-12-03T00:06:55.419Z,5.07
2022-12-03T00:07:07.458Z,5.09
2022-12-03T00:07:19.373Z,5.07
2022-12-03T00:07:31.323Z,5.00
2022-12-03T00:07:43.374Z,4.90
2022-12-03T00:07:55.560Z,4.87
2022-12-03T00:08:07.609Z,4.91
2022-12-03T00:08:19.857Z,4.93
2022-12-03T00:08:31.746Z,4.94
2022-12-03T00:08:43.732Z,4.89
2022-12-03T00:08:55.784Z,4.95
2022-12-03T00:09:07.935Z,4.94
2022-12-03T00:09:19.830Z,4.95
2022-12-03T00:09:31.749Z,4.92
2022-12-03T00:09:43.711Z,4.90
2022-12-03T00:09:55.597Z,4.91
2022-12-03T00:10:08.514Z,4.95
2022-12-03T00:10:20.451Z,4.94
2022-12-03T00:10:32.519Z,4.93
2022-12-03T00:10:44.485Z,4.91
2022-12-03T00:10:56.916Z,4.88
2022-12-03T00:11:08.860Z,4.79
2022-12-03T00:11:21.129Z,4.83
2022-12-03T00:11:33.367Z,4.87
2022-12-03T00:11:45.857Z,4.79
2022-12-03T00:11:57.781Z,4.84
2022-12-03T00:12:09.885Z,4.86
2022-12-03T00:12:21.869Z,4.84
2022-12-03T00:12:34.234Z,4.79
2022-12-03T00:12:46.470Z,4.71
2022-12-03T00:12:58.906Z,4.67
2022-12-03T00:13:10.777Z,4.69
2022-12-03T00:13:22.778Z,4.66
2022-12-03T00:13:34.784Z,4.64
2022-12-03T00:13:46.885Z,4.62
2022-12-03T00:13:58.841Z,4.65
2022-12-03T00:14:10.845Z,4.65
2022-12-03T00:14:22.746Z,4.69
2022-12-03T00:14:36.135Z,4.71
2022-12-03T00:14:50.218Z,4.74
2022-12-03T00:15:02.335Z,4.75
2022-12-03T00:15:14.683Z,4.77
2022-12-03T00:15:26.690Z,4.78
2022-12-03T00:15:38.923Z,4.79
2022-12-03T00:15:51.278Z,4.82
2022-12-03T00:16:03.783Z,4.78
2022-12-03T00:16:15.768Z,4.76
2022-12-03T00:16:28.324Z,4.73
2022-12-03T00:16:40.444Z,4.73
2022-12-03T00:16:52.394Z,4.75
2022-12-03T00:17:04.301Z,4.66
2022-12-03T00:17:16.602Z,4.66
2022-12-03T00:17:28.795Z,4.51
2022-12-03T00:17:40.727Z,4.50
2022-12-03T00:17:52.750Z,4.37
2022-12-03T00:18:04.983Z,4.37
2022-12-03T00:18:16.903Z,4.45
2022-12-03T00:18:29.397Z,4.46
2022-12-03T00:18:41.289Z,4.46
2022-12-03T00:18:53.353Z,4.50
2022-12-03T00:19:07.587Z,4.54
2022-12-03T00:19:19.527Z,4.43
2022-12-03T00:19:31.467Z,4.44
2022-12-03T00:19:43.539Z,4.38
2022-12-03T00:19:55.495Z,4.43
2022-12-03T00:20:08.748Z,4.44
2022-12-03T00:20:23.414Z,4.46
2022-12-03T00:20:35.344Z,4.49
2022-12-03T00:20:47.341Z,4.52
2022-12-03T00:20:59.291Z,4.56
2022-12-03T00:21:11.285Z,4.59
2022-12-03T00:21:24.773Z,4.61
2022-12-03T00:21:37.099Z,4.63
2022-12-03T00:21:49.092Z,4.66
2022-12-03T00:22:01.060Z,4.69
2022-12-03T00:22:13.029Z,4.68
2022-12-03T00:22:24.940Z,4.66
2022-12-03T00:22:36.882Z,4.69
2022-12-03T00:22:49.216Z,4.72
2022-12-03T00:23:01.225Z,4.74
2022-12-03T00:23:13.190Z,4.76
2022-12-03T00:23:25.285Z,4.74
2022-12-03T00:23:41.815Z,4.77
2022-12-03T00:23:54.443Z,4.80
2022-12-03T00:24:06.969Z,4.82
2022-12-03T00:24:18.866Z,4.84
2022-12-03T00:24:31.358Z,4.85
2022-12-03T00:24:43.271Z,4.88
2022-12-03T00:24:55.770Z,4.88
2022-12-03T00:25:08.477Z,4.89
2022-12-03T00:25:20.413Z,4.89
2022-12-03T00:25:32.409Z,4.93
2022-12-03T00:25:44.360Z,4.92
2022-12-03T00:25:56.602Z,4.92
2022-12-03T00:26:08.512Z,4.93
2022-12-03T00:26:20.819Z,4.95
2022-12-03T00:26:32.784Z,4.97
2022-12-03T00:26:44.811Z,4.97
2022-12-03T00:26:56.746Z,5.00
2022-12-03T00:27:08.672Z,5.01
2022-12-03T00:27:20.626Z,5.03
2022-12-03T00:27:32.719Z,5.05
2022-12-03T00:27:44.926Z,5.04
2022-12-03T00:27:56.879Z,5.07
2022-12-03T00:28:08.835Z,5.06
2022-12-03T00:28:20.784Z,5.07
2022-12-03T00:28:32.786Z,5.07
2022-12-03T00:28:44.685Z,5.11
2022-12-03T00:28:57.625Z,5.11
2022-12-03T00:29:09.534Z,5.13
2022-12-03T00:29:21.467Z,5.06
2022-12-03T00:29:33.358Z,4.97
2022-12-03T00:29:45.714Z,4.93
2022-12-03T00:29:57.678Z,4.94
2022-12-03T00:30:11.028Z,4.97
2022-12-03T00:30:22.945Z,4.98
2022-12-03T00:30:35.330Z,5.02
2022-12-03T00:30:47.274Z,5.05
2022-12-03T00:30:59.637Z,5.03
2022-12-03T00:31:11.676Z,5.00
2022-12-03T00:31:24.989Z,5.01
2022-12-03T00:31:37.097Z,5.04
2022-12-03T00:31:49.131Z,5.02
2022-12-03T00:32:01.083Z,4.80
2022-12-03T00:32:14.184Z,4.64
2022-12-03T00:32:26.104Z,4.69
2022-12-03T00:32:38.093Z,4.74
2022-12-03T00:32:50.088Z,4.72
2022-12-03T00:33:02.486Z,4.71
2022-12-03T00:33:14.447Z,4.74
2022-12-03T00:33:26.498Z,4.78
2022-12-03T00:33:38.448Z,4.70
2022-12-03T00:33:52.343Z,4.58
2022-12-03T00:34:04.273Z,4.61
2022-12-03T00:34:16.392Z,4.66
2022-12-03T00:34:28.331Z,4.68
2022-12-03T00:34:40.284Z,4.71
2022-12-03T00:34:52.482Z,4.69
2022-12-03T00:35:04.998Z,4.67
2022-12-03T00:35:16.980Z,4.67
2022-12-03T00:35:28.900Z,4.71
2022-12-03T00:35:41.012Z,4.73
2022-12-03T00:35:52.978Z,4.75
2022-12-03T00:36:05.356Z,4.77
2022-12-03T00:36:17.422Z,4.81
2022-12-03T00:36:29.404Z,4.82
2022-12-03T00:36:41.407Z,4.84
2022-12-03T00:36:53.312Z,4.88
2022-12-03T00:37:05.415Z,4.82
2022-12-03T00:37:17.363Z,4.82
2022-12-03T00:37:29.506Z,4.82
2022-12-03T00:37:41.411Z,4.82
2022-12-03T00:37:53.865Z,4.82
2022-12-03T00:38:05.883Z,4.84
2022-12-03T00:38:18.400Z,4.86
2022-12-03T00:38:30.322Z,4.83
2022-12-03T00:38:42.268Z,4.84
2022-12-03T00:38:54.215Z,4.84
2022-12-03T00:39:06.155Z,4.88
2022-12-03T00:39:18.055Z,4.90
2022-12-03T00:39:30.527Z,4.91
2022-12-03T00:39:42.402Z,4.94
2022-12-03T00:39:54.617Z,4.94
2022-12-03T00:40:07.237Z,4.96
2022-12-03T00:40:19.483Z,4.98
2022-12-03T00:40:31.468Z,4.92
2022-12-03T00:40:43.590Z,4.94
2022-12-03T00:40:55.555Z,4.89
2022-12-03T00:41:07.537Z,4.90
2022-12-03T00:41:19.473Z,4.89
2022-12-03T00:41:31.441Z,4.92
2022-12-03T00:41:43.363Z,4.84
2022-12-03T00:41:55.306Z,4.76
2022-12-03T00:42:07.259Z,4.80
2022-12-03T00:42:19.175Z,4.82
2022-12-03T00:42:31.319Z,4.85
2022-12-03T00:42:43.263Z,4.83
2022-12-03T00:42:55.532Z,4.85
2022-12-03T00:43:07.670Z,4.86
2022-12-03T00:43:19.815Z,4.88
2022-12-03T00:43:31.772Z,4.89
2022-12-03T00:43:43.912Z,4.90
2022-12-03T00:43:57.592Z,4.90
2022-12-03T00:44:10.316Z,4.79
2022-12-03T00:44:22.268Z,4.77
2022-12-03T00:44:34.403Z,4.79
2022-12-03T00:44:46.299Z,4.78
2022-12-03T00:44:58.804Z,4.80
2022-12-03T00:45:11.114Z,4.82
2022-12-03T00:45:23.461Z,4.86
2022-12-03T00:45:35.401Z,4.88
2022-12-03T00:45:47.481Z,4.88
2022-12-03T00:45:59.456Z,4.91
2022-12-03T00:46:13.883Z,4.94
2022-12-03T00:46:27.970Z,4.96
2022-12-03T00:46:40.065Z,4.95
2022-12-03T00:46:52.094Z,4.86
2022-12-03T00:47:04.292Z,4.91
2022-12-03T00:47:16.361Z,4.92
2022-12-03T00:47:28.756Z,4.93
2022-12-03T00:47:40.708Z,4.95
2022-12-03T00:47:52.663Z,4.94
2022-12-03T00:48:05.023Z,4.98
2022-12-03T00:48:17.111Z,5.00
2022-12-03T00:48:29.094Z,5.00
2022-12-03T00:48:41.021Z,5.02
2022-12-03T00:48:53.448Z,5.00
2022-12-03T00:49:05.398Z,5.00
2022-12-03T00:49:17.436Z,5.02
2022-12-03T00:49:29.498Z,5.03
2022-12-03T00:49:41.468Z,5.01
2022-12-03T00:49:53.506Z,5.01
2022-12-03T00:50:06.374Z,5.03
2022-12-03T00:50:18.329Z,5.01
2022-12-03T00:50:30.332Z,5.02
2022-12-03T00:50:42.319Z,4.79
2022-12-03T00:50:54.487Z,4.84
2022-12-03T00:51:06.551Z,4.87
2022-12-03T00:51:19.419Z,4.89
2022-12-03T00:51:31.390Z,4.82
2022-12-03T00:51:43.357Z,4.91
2022-12-03T00:51:55.317Z,4.81
2022-12-03T00:52:07.318Z,4.87
2022-12-03T00:52:19.682Z,4.89
2022-12-03T00:52:31.696Z,4.90
2022-12-03T00:52:43.698Z,4.91
2022-12-03T00:52:55.911Z,4.92
2022-12-03T00:53:08.001Z,4.93
2022-12-03T00:53:19.916Z,4.95
2022-12-03T00:53:31.823Z,4.95
2022-12-03T00:53:43.781Z,4.97
2022-12-03T00:53:56.116Z,4.86
2022-12-03T00:54:08.422Z,4.83
2022-12-03T00:54:20.388Z,4.83
2022-12-03T00:54:32.468Z,4.80
2022-12-03T00:54:45.333Z,4.87
2022-12-03T00:54:57.394Z,4.82
2022-12-03T00:55:09.630Z,4.77
2022-12-03T00:55:22.139Z,4.82
2022-12-03T00:55:34.028Z,4.79
2022-12-03T00:55:46.034Z,4.83
2022-12-03T00:55:58.034Z,4.83
2022-12-03T00:56:09.979Z,4.85
2022-12-03T00:56:21.971Z,4.84
2022-12-03T00:56:33.981Z,4.87
2022-12-03T00:56:46.028Z,4.91
2022-12-03T00:56:57.974Z,4.94
2022-12-03T00:57:10.262Z,4.72
2022-12-03T00:57:22.197Z,4.72
2022-12-03T00:57:34.353Z,4.74
2022-12-03T00:57:47.002Z,4.74
2022-12-03T00:57:59.592Z,4.75
2022-12-03T00:58:11.565Z,4.79
2022-12-03T00:58:23.775Z,4.79
2022-12-03T00:58:36.148Z,4.84
2022-12-03T00:58:48.486Z,4.87
2022-12-03T00:59:00.447Z,4.88
2022-12-03T00:59:12.982Z,4.89
2022-12-03T00:59:25.075Z,4.90
2022-12-03T00:59:37.483Z,4.92
2022-12-03T00:59:49.558Z,4.96
2022-12-03T01:00:01.611Z,4.96
2022-12-03T01:00:14.500Z,4.98
2022-12-03T01:00:26.450Z,4.96
2022-12-03T01:00:38.378Z,4.88
2022-12-03T01:00:50.517Z,4.88
2022-12-03T01:01:02.835Z,4.85
2022-12-03T01:01:14.830Z,4.88
2022-12-03T01:01:26.822Z,4.80
2022-12-03T01:01:38.846Z,4.77
2022-12-03T01:01:51.030Z,4.73
2022-12-03T01:02:03.064Z,4.64
2022-12-03T01:02:15.223Z,4.61
2022-12-03T01:02:27.334Z,4.63
2022-12-03T01:02:39.374Z,4.59
2022-12-03T01:02:52.510Z,4.60
2022-12-03T01:03:04.543Z,4.65
2022-12-03T01:03:16.549Z,4.66
2022-12-03T01:03:28.683Z,4.67
2022-12-03T01:03:40.815Z,4.66
2022-12-03T01:03:52.703Z,4.67
2022-12-03T01:04:05.243Z,4.69
2022-12-03T01:04:17.326Z,4.75
2022-12-03T01:04:29.852Z,4.71
2022-12-03T01:04:41.880Z,4.68
2022-12-03T01:04:54.310Z,4.71
2022-12-03T01:05:06.797Z,4.70
2022-12-03T01:05:20.248Z,4.75
2022-12-03T01:05:32.231Z,4.78
2022-12-03T01:05:44.189Z,4.82
2022-12-03T01:05:56.171Z,4.80
2022-12-03T01:06:08.249Z,4.78
2022-12-03T01:06:20.162Z,4.78
2022-12-03T01:06:32.451Z,4.73
2022-12-03T01:06:44.395Z,4.74
2022-12-03T01:06:56.521Z,4.79
2022-12-03T01:07:08.593Z,4.71
2022-12-03T01:07:21.191Z,4.72
2022-12-03T01:07:33.225Z,4.72
2022-12-03T01:07:46.417Z,4.75
2022-12-03T01:07:58.786Z,4.77
2022-12-03T01:08:11.431Z,4.82
2022-12-03T01:08:24.151Z,4.84
2022-12-03T01:08:36.199Z,4.76
2022-12-03T01:08:48.421Z,4.71
2022-12-03T01:09:00.379Z,4.72
2022-12-03T01:09:12.469Z,4.75
2022-12-03T01:09:24.393Z,4.77
2022-12-03T01:09:36.638Z,4.77
2022-12-03T01:09:48.606Z,4.81
2022-12-03T01:10:01.318Z,4.79
2022-12-03T01:10:13.798Z,4.80
2022-12-03T01:10:26.107Z,4.77
2022-12-03T01:10:38.070Z,4.62
2022-12-03T01:10:50.034Z,4.43
2022-12-03T01:11:02.010Z,4.40
2022-12-03T01:11:32.767Z,4.44
2022-12-03T01:11:45.088Z,4.59
2022-12-03T01:11:57.381Z,4.65
2022-12-03T01:12:09.392Z,4.67
2022-12-03T01:12:21.729Z,4.72
2022-12-03T01:12:33.683Z,4.66
2022-12-03T01:12:45.616Z,4.68
2022-12-03T01:12:57.726Z,4.70
2022-12-03T01:13:09.984Z,4.56
2022-12-03T01:13:22.075Z,4.59
2022-12-03T01:13:33.959Z,4.59
2022-12-03T01:13:45.890Z,4.60
2022-12-03T01:13:58.230Z,4.61
2022-12-03T01:14:20.228Z,4.69
2022-12-03T01:14:32.294Z,4.73
2022-12-03T01:14:45.051Z,4.74
2022-12-03T01:14:57.021Z,4.75
2022-12-03T01:15:10.215Z,4.77
2022-12-03T01:15:22.121Z,4.83
2022-12-03T01:15:34.464Z,4.85
2022-12-03T01:15:46.600Z,4.87
2022-12-03T01:15:58.912Z,4.84
2022-12-03T01:16:10.921Z,4.83
2022-12-03T01:16:23.022Z,4.85
2022-12-03T01:16:35.883Z,4.83
2022-12-03T01:16:48.513Z,4.85
2022-12-03T01:17:00.546Z,4.63
2022-12-03T01:17:12.937Z,4.72
2022-12-03T01:17:24.938Z,4.74
2022-12-03T01:17:37.696Z,4.71
2022-12-03T01:17:49.706Z,4.62
2022-12-03T01:18:01.770Z,4.49
2022-12-03T01:18:13.725Z,4.55
2022-12-03T01:18:26.132Z,4.60
2022-12-03T01:18:38.198Z,4.62
2022-12-03T01:18:52.428Z,4.65
2022-12-03T01:19:05.854Z,4.68
2022-12-03T01:19:19.084Z,4.70
2022-12-03T01:19:31.082Z,4.66
2022-12-03T01:19:48.092Z,4.69
2022-12-03T01:20:01.786Z,4.74
2022-12-03T01:20:13.780Z,4.69
2022-12-03T01:20:26.045Z,4.51
2022-12-03T01:20:38.595Z,4.57
2022-12-03T01:20:50.827Z,4.58
2022-12-03T01:21:02.833Z,4.54
2022-12-03T01:21:14.748Z,4.55
2022-12-03T01:21:26.702Z,4.43
2022-12-03T01:21:38.578Z,4.48
2022-12-03T01:21:51.584Z,4.53
2022-12-03T01:22:03.635Z,4.57
2022-12-03T01:22:15.610Z,4.43
2022-12-03T01:22:28.224Z,4.45
2022-12-03T01:22:40.474Z,4.48
2022-12-03T01:22:52.504Z,4.54
2022-12-03T01:23:04.839Z,4.57
2022-12-03T01:23:16.775Z,4.63
2022-12-03T01:23:28.864Z,4.64
2022-12-03T01:23:40.766Z,4.47
2022-12-03T01:23:53.154Z,4.42
2022-12-03T01:24:05.470Z,4.26
2022-12-03T01:24:19.019Z,4.29
2022-12-03T01:24:31.400Z,4.37
2022-12-03T01:24:43.443Z,4.19
2022-12-03T01:24:55.615Z,4.26
2022-12-03T01:25:08.235Z,4.08
2022-12-03T01:25:20.185Z,4.13
2022-12-03T01:25:32.194Z,4.19
2022-12-03T01:25:44.319Z,4.24
2022-12-03T01:25:56.197Z,4.31
2022-12-03T01:26:08.627Z,4.36
2022-12-03T01:26:20.688Z,4.39
2022-12-03T01:26:32.857Z,4.38
2022-12-03T01:26:44.841Z,4.43
2022-12-03T01:26:57.857Z,4.45
2022-12-03T01:27:09.822Z,4.51
2022-12-03T01:27:21.857Z,4.55
2022-12-03T01:27:33.806Z,4.56
2022-12-03T01:27:46.165Z,4.56
2022-12-03T01:27:58.165Z,4.59
2022-12-03T01:28:10.412Z,4.61
2022-12-03T01:28:22.347Z,4.65
2022-12-03T01:28:34.479Z,4.67
2022-12-03T01:28:46.478Z,4.71
2022-12-03T01:28:58.416Z,4.71
2022-12-03T01:29:10.587Z,4.68
2022-12-03T01:29:22.527Z,4.64
2022-12-03T01:29:34.532Z,4.64
2022-12-03T01:29:46.485Z,4.67
2022-12-03T01:29:58.688Z,4.70
2022-12-03T01:30:12.347Z,4.72
2022-12-03T01:30:24.333Z,4.68
2022-12-03T01:30:56.277Z,4.59
2022-12-03T01:31:27.735Z,4.68
2022-12-03T01:31:58.086Z,4.72
2022-12-03T01:32:16.698Z,4.76
2022-12-03T01:32:28.650Z,4.74
2022-12-03T01:32:40.727Z,4.74
2022-12-03T01:32:52.733Z,4.75
2022-12-03T01:33:04.642Z,4.74
2022-12-03T01:33:16.559Z,4.73
2022-12-03T01:33:28.650Z,4.78
2022-12-03T01:33:40.565Z,4.78
2022-12-03T01:33:52.668Z,4.76
2022-12-03T01:34:05.181Z,4.77
2022-12-03T01:34:17.487Z,4.78
2022-12-03T01:34:29.465Z,4.80
2022-12-03T01:34:41.515Z,4.83
2022-12-03T01:34:55.524Z,4.84
2022-12-03T01:35:08.201Z,4.86
2022-12-03T01:35:20.208Z,4.86
2022-12-03T01:35:32.102Z,4.88
2022-12-03T01:35:43.973Z,4.91
2022-12-03T01:35:55.908Z,4.89
2022-12-03T01:36:08.215Z,4.92
2022-12-03T01:36:20.219Z,4.93
2022-12-03T01:36:34.254Z,4.94
2022-12-03T01:36:46.241Z,4.90
2022-12-03T01:36:58.184Z,4.92
2022-12-03T01:37:10.511Z,4.94
2022-12-03T01:37:25.390Z,4.96
2022-12-03T01:37:37.349Z,4.89
2022-12-03T01:37:49.496Z,4.82
2022-12-03T01:38:01.390Z,4.85
2022-12-03T01:38:13.370Z,4.85
2022-12-03T01:38:25.365Z,4.87
2022-12-03T01:38:37.298Z,4.88
2022-12-03T01:38:49.414Z,4.88
2022-12-03T01:39:02.316Z,4.84
2022-12-03T01:39:14.310Z,4.80
2022-12-03T01:39:26.279Z,4.78
2022-12-03T01:39:38.235Z,4.83
2022-12-03T01:39:50.235Z,4.80
2022-12-03T01:40:02.203Z,4.82
2022-12-03T01:40:19.571Z,4.84
2022-12-03T01:40:31.719Z,4.84
2022-12-03T01:40:43.705Z,4.84
2022-12-03T01:40:55.923Z,4.86
2022-12-03T01:41:11.719Z,4.86
2022-12-03T01:41:24.973Z,4.87
2022-12-03T01:41:37.165Z,4.88
2022-12-03T01:41:51.605Z,4.90
2022-12-03T01:42:04.720Z,4.92
2022-12-03T01:42:23.022Z,4.89
2022-12-03T01:42:39.323Z,4.84
2022-12-03T01:42:51.285Z,4.79
2022-12-03T01:43:03.310Z,4.79
2022-12-03T01:43:15.265Z,4.80
2022-12-03T01:43:27.178Z,4.82
2022-12-03T01:43:39.136Z,4.83
2022-12-03T01:43:51.780Z,4.85
2022-12-03T01:44:12.845Z,4.75
2022-12-03T01:44:30.026Z,4.48
2022-12-03T01:44:42.299Z,4.56
2022-12-03T01:44:56.953Z,4.58
2022-12-03T01:45:21.186Z,4.53
2022-12-03T01:45:33.498Z,4.59
2022-12-03T01:45:45.677Z,4.55
2022-12-03T01:45:57.652Z,4.59
2022-12-03T01:46:13.665Z,4.66
2022-12-03T01:46:34.946Z,4.62
2022-12-03T01:46:47.901Z,4.66
2022-12-03T01:47:03.633Z,4.69
2022-12-03T01:47:19.467Z,4.73
2022-12-03T01:47:34.269Z,4.76
2022-12-03T01:47:46.184Z,4.78
2022-12-03T01:47:58.157Z,4.80
2022-12-03T01:48:16.535Z,4.84
2022-12-03T01:48:34.124Z,4.87
2022-12-03T01:48:47.991Z,4.89
2022-12-03T01:49:00.185Z,4.91
2022-12-03T01:49:17.225Z,4.92
2022-12-03T01:49:36.401Z,4.85
2022-12-03T01:49:53.075Z,4.90
2022-12-03T01:50:17.815Z,4.96
2022-12-03T01:50:33.918Z,4.95
2022-12-03T01:50:46.278Z,4.93
2022-12-03T01:50:58.311Z,4.93
2022-12-03T01:51:10.501Z,4.80
2022-12-03T01:51:22.721Z,4.82
2022-12-03T01:51:34.702Z,4.84
2022-12-03T01:51:48.412Z,4.84
2022-12-03T01:52:00.617Z,4.83
2022-12-03T01:52:15.295Z,4.83
2022-12-03T01:52:31.323Z,4.85
2022-12-03T01:52:44.432Z,4.84
2022-12-03T01:53:00.496Z,4.83
2022-12-03T01:53:16.097Z,4.83
2022-12-03T01:53:28.070Z,4.86
2022-12-03T01:53:40.510Z,4.89
2022-12-03T01:53:52.442Z,4.90
2022-12-03T01:54:04.714Z,4.92
2022-12-03T01:54:27.029Z,4.85
2022-12-03T01:54:42.201Z,4.90
2022-12-03T01:54:57.954Z,4.91
2022-12-03T01:55:16.535Z,4.91
2022-12-03T01:55:29.190Z,4.88
2022-12-03T01:55:48.327Z,4.88
2022-12-03T01:56:00.871Z,4.94
2022-12-03T01:56:15.446Z,4.88
2022-12-03T01:56:28.029Z,4.84
2022-12-03T01:56:40.429Z,4.88
2022-12-03T01:56:54.274Z,4.89
2022-12-03T01:57:17.907Z,4.71
2022-12-03T01:57:42.078Z,4.68
2022-12-03T01:57:57.177Z,4.75
2022-12-03T01:58:13.843Z,4.75
2022-12-03T01:58:28.631Z,4.63
2022-12-03T01:58:41.887Z,4.64
2022-12-03T01:58:53.832Z,4.63
2022-12-03T01:59:05.798Z,4.46
2022-12-03T01:59:19.772Z,4.55
2022-12-03T01:59:38.532Z,4.43
2022-12-03T01:59:52.217Z,4.43
2022-12-03T02:00:04.621Z,4.49
2022-12-03T02:00:19.982Z,4.51
2022-12-03T02:00:32.058Z,4.52
2022-12-03T02:00:44.060Z,4.55
2022-12-03T02:00:58.990Z,4.56
2022-12-03T02:01:16.621Z,4.64
2022-12-03T02:01:28.693Z,4.65
2022-12-03T02:01:40.956Z,4.65
2022-12-03T02:01:52.937Z,4.69
2022-12-03T02:02:14.227Z,4.73
2022-12-03T02:02:31.106Z,4.78
2022-12-03T02:02:43.349Z,4.58
2022-12-03T02:03:02.188Z,4.55
2022-12-03T02:03:20.943Z,4.61
2022-12-03T02:03:33.027Z,4.45
2022-12-03T02:03:46.118Z,4.48
2022-12-03T02:03:58.442Z,4.52
2022-12-03T02:04:16.608Z,4.51
2022-12-03T02:04:29.828Z,4.47
2022-12-03T02:04:41.862Z,4.53
2022-12-03T02:04:55.042Z,4.54
2022-12-03T02:05:16.731Z,4.53
2022-12-03T02:05:31.193Z,4.61
2022-12-03T02:05:43.323Z,4.64
2022-12-03T02:05:56.821Z,4.64
2022-12-03T02:06:17.050Z,4.53
2022-12-03T02:06:30.038Z,4.53
2022-12-03T02:06:44.716Z,4.58
2022-12-03T02:06:57.426Z,4.61
2022-12-03T02:07:18.316Z,4.69
2022-12-03T02:07:32.770Z,4.72
2022-12-03T02:07:45.252Z,4.75
2022-12-03T02:07:58.270Z,4.74
2022-12-03T02:08:29.681Z,4.75
2022-12-03T02:08:41.752Z,4.71
2022-12-03T02:08:59.495Z,4.74
2022-12-03T02:09:12.982Z,4.66
2022-12-03T02:09:24.905Z,4.69
2022-12-03T02:09:36.842Z,4.69
2022-12-03T02:09:49.071Z,4.67
2022-12-03T02:10:03.261Z,4.67
2022-12-03T02:10:17.364Z,4.69
2022-12-03T02:10:35.748Z,4.68
2022-12-03T02:10:47.808Z,4.67
2022-12-03T02:11:05.246Z,4.62
2022-12-03T02:11:29.878Z,4.60
2022-12-03T02:11:49.314Z,4.65
2022-12-03T02:12:01.203Z,4.59
2022-12-03T02:12:16.046Z,4.66
2022-12-03T02:12:33.656Z,4.69
2022-12-03T02:12:54.568Z,4.75
2022-12-03T02:13:09.355Z,4.72
2022-12-03T02:13:21.710Z,4.74
2022-12-03T02:13:33.759Z,4.77
2022-12-03T02:13:47.796Z,4.78
2022-12-03T02:14:04.211Z,4.82
2022-12-03T02:14:20.129Z,4.78
2022-12-03T02:14:32.509Z,4.80
2022-12-03T02:14:44.557Z,4.71
2022-12-03T02:14:57.467Z,4.76
2022-12-03T02:15:10.960Z,4.78
2022-12-03T02:15:23.546Z,4.79
2022-12-03T02:15:38.444Z,4.84
2022-12-03T02:15:50.472Z,4.84
2022-12-03T02:16:03.817Z,4.79
2022-12-03T02:16:16.020Z,4.80
2022-12-03T02:16:29.129Z,4.82
2022-12-03T02:16:42.207Z,4.56
2022-12-03T02:16:54.299Z,4.62
2022-12-03T02:17:06.600Z,4.66
2022-12-03T02:17:18.742Z,4.71
2022-12-03T02:17:31.003Z,4.73
2022-12-03T02:17:43.258Z,4.77
2022-12-03T02:17:55.557Z,4.82
2022-12-03T02:18:08.975Z,4.84
2022-12-03T02:18:21.247Z,4.65
2022-12-03T02:18:33.863Z,4.65
2022-12-03T02:18:45.979Z,4.55
2022-12-03T02:18:58.610Z,4.51
2022-12-03T02:19:20.920Z,4.55
2022-12-03T02:19:33.233Z,4.63
2022-12-03T02:19:46.001Z,4.65
2022-12-03T02:19:59.111Z,4.68
2022-12-03T02:20:12.044Z,4.71
2022-12-03T02:20:24.213Z,4.72
2022-12-03T02:20:46.863Z,4.74
2022-12-03T02:21:33.928Z,4.76
2022-12-03T02:22:17.955Z,4.82
2022-12-03T02:22:34.886Z,4.70
2022-12-03T02:23:13.862Z,4.62
2022-12-03T02:23:40.755Z,4.65
2022-12-03T02:24:21.998Z,4.33
2022-12-03T02:24:53.102Z,4.38
2022-12-03T02:25:32.550Z,4.24
2022-12-03T02:25:44.489Z,4.25
2022-12-03T02:25:56.517Z,4.23
2022-12-03T02:26:08.821Z,4.18
2022-12-03T02:26:21.189Z,4.16
2022-12-03T02:26:33.362Z,4.23
2022-12-03T02:26:45.558Z,4.17
2022-12-03T02:26:57.496Z,4.16
2022-12-03T02:27:09.473Z,4.23
2022-12-03T02:27:22.166Z,4.19
2022-12-03T02:27:34.161Z,4.22
2022-12-03T02:27:47.833Z,4.25
2022-12-03T02:28:00.614Z,4.30
2022-12-03T02:28:12.856Z,4.22
2022-12-03T02:28:24.957Z,4.14
2022-12-03T02:28:38.196Z,4.10
2022-12-03T02:28:50.267Z,4.13
2022-12-03T02:29:02.607Z,4.17
2022-12-03T02:29:14.587Z,4.23
2022-12-03T02:29:26.683Z,4.29
2022-12-03T02:29:38.775Z,4.32
2022-12-03T02:29:51.316Z,4.36
2022-12-03T02:30:05.531Z,4.41
2022-12-03T02:30:21.754Z,4.46
2022-12-03T02:30:33.976Z,4.45
2022-12-03T02:30:45.915Z,4.44
2022-12-03T02:30:58.173Z,4.31
2022-12-03T02:31:10.398Z,4.35
2022-12-03T02:31:23.691Z,4.39
2022-12-03T02:31:36.025Z,4.33
2022-12-03T02:31:48.426Z,4.38
2022-12-03T02:32:00.649Z,4.39
2022-12-03T02:32:12.683Z,4.45
2022-12-03T02:32:24.656Z,4.44
2022-12-03T02:32:37.476Z,4.47
2022-12-03T02:32:52.166Z,4.54
2022-12-03T02:33:04.243Z,4.46
2022-12-03T02:33:16.729Z,4.24
2022-12-03T02:33:28.648Z,4.34
2022-12-03T02:33:40.826Z,4.36
2022-12-03T02:33:52.826Z,4.40
2022-12-03T02:34:08.871Z,4.34
2022-12-03T02:34:53.228Z,4.47
2022-12-03T02:35:06.293Z,4.46
2022-12-03T02:35:23.806Z,4.35
2022-12-03T02:35:37.170Z,4.38
2022-12-03T02:35:49.457Z,4.43
2022-12-03T02:36:03.941Z,4.36
2022-12-03T02:36:16.888Z,4.40
2022-12-03T02:36:28.891Z,4.43
2022-12-03T02:36:40.909Z,4.46
2022-12-03T02:36:53.022Z,4.45
2022-12-03T02:37:07.570Z,4.40
2022-12-03T02:37:24.519Z,4.30
2022-12-03T02:37:37.418Z,4.26
2022-12-03T02:37:52.810Z,4.26
2022-12-03T02:38:24.808Z,4.30
2022-12-03T02:38:37.125Z,4.13
2022-12-03T02:38:49.962Z,4.14
2022-12-03T02:39:02.707Z,4.16
2022-12-03T02:39:14.634Z,4.13
2022-12-03T02:39:26.905Z,4.14
2022-12-03T02:39:42.912Z,4.15
2022-12-03T02:39:58.615Z,4.16
2022-12-03T02:40:15.000Z,4.15
2022-12-03T02:40:30.928Z,4.17
2022-12-03T02:40:45.817Z,4.22
2022-12-03T02:41:02.557Z,4.26
2022-12-03T02:41:37.305Z,4.18
2022-12-03T02:42:08.232Z,4.21
2022-12-03T02:42:36.223Z,4.29
2022-12-03T02:42:51.196Z,4.32
2022-12-03T02:43:04.463Z,4.35
2022-12-03T02:43:18.344Z,4.39
2022-12-03T02:43:30.788Z,4.39
2022-12-03T02:43:43.115Z,4.34
2022-12-03T02:43:54.997Z,4.26
2022-12-03T02:44:08.610Z,4.00
2022-12-03T02:44:20.600Z,4.04
2022-12-03T02:44:32.573Z,4.12
2022-12-03T02:44:44.580Z,4.18
2022-12-03T02:45:04.891Z,4.16
2022-12-03T02:45:17.526Z,4.18
2022-12-03T02:45:36.200Z,4.14
2022-12-03T02:45:53.363Z,3.99
2022-12-03T02:46:08.064Z,4.00
2022-12-03T02:46:20.033Z,4.09
2022-12-03T02:46:33.338Z,4.13
2022-12-03T02:46:45.374Z,4.17
2022-12-03T02:46:57.525Z,4.13
2022-12-03T02:47:09.814Z,4.17
2022-12-03T02:47:22.629Z,4.21
2022-12-03T02:47:40.523Z,4.18
2022-12-03T02:48:02.550Z,4.20
2022-12-03T02:48:19.473Z,3.89
2022-12-03T02:48:35.638Z,3.76
2022-12-03T02:48:47.619Z,3.78
2022-12-03T02:49:01.083Z,3.90
2022-12-03T02:49:13.143Z,3.87
2022-12-03T02:49:25.349Z,3.89
2022-12-03T02:49:37.367Z,3.91
2022-12-03T02:49:50.716Z,3.83
2022-12-03T02:50:03.133Z,3.82
2022-12-03T02:50:19.645Z,3.74
2022-12-03T02:50:34.483Z,3.86
2022-12-03T02:50:51.948Z,3.77
2022-12-03T02:51:10.174Z,3.84
2022-12-03T02:51:22.315Z,3.82
2022-12-03T02:51:34.842Z,3.78
2022-12-03T02:51:46.753Z,3.84
2022-12-03T02:51:58.722Z,3.94
2022-12-03T02:52:10.823Z,3.91
2022-12-03T02:52:23.360Z,3.95
2022-12-03T02:52:35.828Z,4.00
2022-12-03T02:52:48.632Z,4.01
2022-12-03T02:53:04.529Z,4.08
2022-12-03T02:53:25.514Z,4.06
2022-12-03T02:53:44.601Z,4.04
2022-12-03T02:53:57.335Z,4.05
2022-12-03T02:54:09.848Z,3.99
2022-12-03T02:54:21.978Z,3.99
2022-12-03T02:54:34.666Z,3.95
2022-12-03T02:54:47.375Z,3.92
2022-12-03T02:54:59.882Z,3.94
2022-12-03T02:55:14.035Z,3.93
2022-12-03T02:55:30.723Z,3.98
2022-12-03T02:55:48.744Z,3.87
2022-12-03T02:56:02.800Z,3.79
2022-12-03T02:56:18.706Z,3.90
2022-12-03T02:56:32.420Z,3.94
2022-12-03T02:56:44.986Z,3.99
2022-12-03T02:56:57.030Z,4.05
2022-12-03T02:57:09.080Z,4.08
2022-12-03T02:57:21.281Z,4.05
2022-12-03T02:57:35.993Z,4.08
2022-12-03T02:57:50.821Z,4.12
2022-12-03T02:58:04.864Z,4.17
2022-12-03T02:58:17.740Z,4.20
2022-12-03T02:58:32.332Z,4.26
2022-12-03T02:58:46.958Z,4.28
2022-12-03T02:59:02.986Z,4.35
2022-12-03T02:59:15.182Z,4.36
2022-12-03T02:59:27.443Z,4.37
2022-12-03T02:59:39.648Z,4.30